Flight Track Log - Related Links

Times and Time Zones

All times are in EST time to prevent confusion due to time zone crossing. See the N55TG flight status page for this flight to view local times or setup timezone preferences in your user account.

Time Position Orientation Groundspeed Altitude Reporting Facility
EST Latitude Longitude Course Direction KTS MPH feet Rate Location/Type
Wed 10:40:19 AM 41.5964 -72.4944 357° North 104 120 6,700  Level Boston Center
Wed 10:41:20 AM 41.6244 -72.4956 358° North 107 123 7,300 425 Climbing Boston Center
Wed 10:42:12 AM 41.6508 -72.5017 350° North 111 128 7,500 218 Climbing Boston Center
Wed 10:42:15 AM 41.6531 -72.5028 340° North 108 124 7,500 197 Level Boston Center
Wed 10:43:13 AM 41.6847 -72.5069 354° North 112 129 7,700 197 Climbing Boston Center
Wed 10:43:16 AM 41.6850 -72.5056 75° East 115 132 7,700 197 Level Boston Center
Wed 10:44:14 AM 41.7189 -72.5097 355° North 122 140 7,900 197 Climbing Boston Center
Wed 10:44:17 AM 41.7186 -72.5089 114° Southeast 123 142 7,900  Level Boston Center
Wed 10:45:00 AM 41.9449 -72.6644 357° North  Level Estimated
Wed 10:45:14 AM 41.7531 -72.5147 353° North 124 143 7,900  Level Boston Center
Wed 10:45:17 AM 41.7542 -72.5156 331° Northwest 122 140 7,900  Level Boston Center
Wed 10:46:17 AM 41.7875 -72.5200 354° North 122 140 7,900 -99 Level Boston Center
Wed 10:47:18 AM 41.8222 -72.5250 354° North 125 144 7,700 -197 Descending Boston Center
Wed 10:48:19 AM 41.8619 -72.5300 355° North 132 152 7,500 -149 Descending Boston Center
Wed 10:49:19 AM 41.8975 -72.5319 358° North 133 153 7,400 -99 Descending Boston Center
Wed 10:50:20 AM 41.9336 -72.5356 356° North 128 147 7,300  Descending Boston Center
Wed 10:51:22 AM 41.9669 -72.5442 349° North 123 142 7,400  Climbing Boston Center
Wed 10:51:28 AM 41.9725 -72.5444 358° North 123 142 7,300 -98 Descending Boston Center
Wed 10:52:23 AM 42.0042 -72.5494 353° North 125 144 7,300  Level Boston Center
Wed 10:52:29 AM 42.0058 -72.5506 334° Northwest 125 144 7,300  Level Boston Center
Wed 10:53:30 AM 42.0411 -72.5572 352° North 125 144 7,300 -52 Level Boston Center
Wed 10:54:25 AM 42.0719 -72.5636 351° North 125 144 7,200 -98 Descending Boston Center
Wed 10:54:31 AM 42.0744 -72.5633 North 124 143 7,200 100 Level Boston Center
Wed 10:55:25 AM 42.1053 -72.5686 353° North 121 139 7,300 98 Climbing Boston Center
Wed 10:55:32 AM 42.1097 -72.5703 344° North 123 142 7,300 164 Level Boston Center
Wed 10:56:38 AM 42.1456 -72.5744 355° North 116 133 7,500 157 Climbing Boston Center
Wed 10:57:27 AM 42.1739 -72.5792 353° North 122 140 7,600 98 Climbing Boston Center
Wed 10:57:39 AM 42.1764 -72.5825 315° West 116 133 7,600 95 Level Boston Center
Wed 10:58:30 AM 42.2042 -72.5892 350° North 114 131 7,700 103 Climbing Boston Center
Wed 10:58:37 AM 42.2092 -72.5914 342° North 118 136 7,700 -97 Level Boston Center
Wed 10:59:32 AM 42.2386 -72.5939 356° North 123 142 7,600 -98 Descending Boston Center
Wed 10:59:38 AM 42.2450 -72.5956 349° North 128 147 7,600 -98 Level Boston Center
Wed 11:00:33 AM 42.2769 -72.5972 358° North 130 150 7,500 -98 Descending Boston Center
Wed 11:00:39 AM 42.2814 -72.5969 North 128 147 7,500 -98 Level Boston Center
Wed 11:01:34 AM 42.3125 -72.5961 North 128 147 7,400 -52 Descending Boston Center
Wed 11:02:34 AM 42.3467 -72.6017 353° North 132 152 7,400  Level Boston Center
Wed 11:03:34 AM 42.3808 -72.6067 354° North 125 144 7,400 49 Level Boston Center
Wed 11:04:36 AM 42.4144 -72.6106 355° North 123 142 7,500 98 Climbing Boston Center
Wed 11:05:36 AM 42.4478 -72.6164 353° North 122 140 7,600 98 Climbing Boston Center
Wed 11:06:38 AM 42.4806 -72.6267 347° North 121 139 7,700 97 Climbing Boston Center
Wed 11:07:40 AM 42.5161 -72.6369 348° North 113 130 7,800 -49 Climbing Boston Center
Wed 11:08:41 AM 42.5542 -72.6447 351° North 130 150 7,600 -99 Descending Boston Center
Wed 11:09:41 AM 42.5911 -72.6461 358° North 132 152 7,600 -49 Level Boston Center
Wed 11:10:43 AM 42.6256 -72.6511 354° North 130 150 7,500 -98 Descending Boston Center
Wed 11:11:43 AM 42.6614 -72.6547 356° North 129 148 7,400 -149 Descending Boston Center
Wed 11:12:44 AM 42.6981 -72.6578 356° North 131 151 7,200 -98 Descending Boston Center
Wed 11:13:45 AM 42.7336 -72.6619 355° North 130 150 7,200  Level Boston Center
Wed 11:14:48 AM 42.7686 -72.6678 353° North 129 148 7,200 49 Level Boston Center
Wed 11:15:47 AM 42.8039 -72.6750 351° North 128 147 7,300  Climbing Boston Center
Wed 11:16:51 AM 42.8397 -72.6800 354° North 129 148 7,200  Descending Boston Center
Wed 11:17:51 AM 42.8756 -72.6836 356° North 129 148 7,300 50 Climbing Boston Center
Wed 11:18:52 AM 42.9186 -72.6889 355° North 129 148 7,300  Level Boston Center
Wed 11:19:52 AM 42.9528 -72.6961 351° North 127 146 7,300  Level Boston Center
Wed 11:20:53 AM 42.9892 -72.7017 354° North 129 148 7,300  Level Boston Center
Wed 11:21:54 AM 43.0256 -72.7064 355° North 131 151 7,300 48 Level Boston Center
Wed 11:22:57 AM 43.0608 -72.7092 357° North 129 148 7,400 48 Climbing Boston Center
Wed 11:23:58 AM 43.0975 -72.7036 North 131 151 7,400  Level Boston Center
Wed 11:24:58 AM 43.1344 -72.7017 North 132 152 7,400  Level Boston Center
Wed 11:25:58 AM 43.1714 -72.7047 357° North 132 152 7,400  Level Boston Center
Wed 11:27:00 AM 43.2083 -72.7061 358° North 133 153 7,400 -96 Level Boston Center
Wed 11:28:03 AM 43.2525 -72.7086 358° North 133 153 7,200 -97 Descending Boston Center
Wed 11:29:04 AM 43.2900 -72.7119 356° North 133 153 7,200  Level Boston Center
Wed 11:30:04 AM 43.3292 -72.7142 358° North 137 158 7,200 149 Level Boston Center
Wed 11:31:05 AM 43.3631 -72.7133 North 129 148 7,500 145 Climbing Boston Center
Wed 11:32:08 AM 43.3981 -72.7183 354° North 126 145 7,500  Level Boston Center
Wed 11:33:09 AM 43.4336 -72.7239 354° North 128 147 7,500 -50 Level Boston Center
Wed 11:34:09 AM 43.4711 -72.7289 354° North 134 154 7,400 -50 Descending Boston Center
Wed 11:35:10 AM 43.5081 -72.7356 353° North 135 155 7,400 48 Level Boston Center
Wed 11:36:13 AM 43.5447 -72.7417 353° North 133 153 7,500  Climbing Boston Center
Wed 11:37:14 AM 43.5806 -72.7492 351° North 130 150 7,400 -50 Descending Boston Center
Wed 11:38:14 AM 43.6250 -72.7522 357° North 132 152 7,400 -97 Level Boston Center
Wed 11:39:18 AM 43.6611 -72.7625 348° North 132 152 7,200 -97 Descending Boston Center
Wed 11:40:18 AM 43.6986 -72.7722 349° North 132 152 7,200 100 Level Boston Center
Wed 11:41:18 AM 43.7342 -72.7781 353° North 130 150 7,400 146 Climbing Boston Center
Wed 11:42:21 AM 43.7744 -72.7789 359° North 135 155 7,500  Climbing Boston Center
Wed 11:43:21 AM 43.8133 -72.7792 360° North 139 160 7,400 -397 Descending Boston Center
Wed 11:44:22 AM 43.8561 -72.7806 359° North 154 177 6,700 -677 Descending Boston Center
Wed 11:45:25 AM 43.9000 -72.7883 353° North 154 177 6,000 -677 Descending Boston Center
Wed 11:46:26 AM 43.9436 -72.7967 352° North 156 180 5,300 -689 Descending Boston Center

Login

Don't have an account? Register now (free) for customized features, flight alerts, and more!